createdAt,value
2017-05-13T00:00:11.206Z,49.10
2017-05-13T00:01:12.490Z,48.81
2017-05-13T00:02:13.775Z,49.00
2017-05-13T00:03:15.058Z,49.29
2017-05-13T00:04:16.341Z,49.10
2017-05-13T00:05:17.627Z,49.48
2017-05-13T00:06:18.910Z,49.19
2017-05-13T00:07:20.195Z,49.19
2017-05-13T00:08:21.479Z,48.71
2017-05-13T00:09:22.763Z,49.38
2017-05-13T00:10:24.051Z,48.81
2017-05-13T00:11:25.338Z,49.29
2017-05-13T00:12:26.623Z,49.00
2017-05-13T00:13:27.908Z,48.90
2017-05-13T00:14:29.191Z,48.90
2017-05-13T00:15:30.475Z,49.19
2017-05-13T00:16:31.757Z,49.10
2017-05-13T00:17:33.043Z,49.38
2017-05-13T00:18:34.326Z,49.00
2017-05-13T00:19:35.609Z,49.10
2017-05-13T00:20:36.894Z,49.00
2017-05-13T00:21:38.178Z,49.38
2017-05-13T00:22:39.461Z,49.19
2017-05-13T00:23:40.745Z,49.19
2017-05-13T00:24:42.028Z,49.00
2017-05-13T00:25:43.310Z,49.19
2017-05-13T00:26:44.595Z,49.19
2017-05-13T00:27:45.878Z,49.10
2017-05-13T00:28:47.162Z,49.19
2017-05-13T00:29:48.447Z,49.10
2017-05-13T00:30:49.733Z,49.10
2017-05-13T00:31:51.015Z,49.29
2017-05-13T00:32:52.303Z,49.38
2017-05-13T00:33:53.582Z,49.19
2017-05-13T00:34:54.866Z,49.29
2017-05-13T00:35:56.148Z,48.90
2017-05-13T00:36:57.431Z,49.19
2017-05-13T00:37:58.717Z,48.71
2017-05-13T00:39:00.002Z,48.90
2017-05-13T00:40:01.297Z,49.10
2017-05-13T00:41:02.580Z,49.19
2017-05-13T00:42:03.875Z,49.38
2017-05-13T00:43:05.149Z,49.00
2017-05-13T00:44:06.434Z,48.90
2017-05-13T00:45:07.718Z,49.00
2017-05-13T00:46:09.001Z,49.19
2017-05-13T00:47:10.286Z,49.19
2017-05-13T00:48:11.572Z,48.90
2017-05-13T00:49:12.857Z,48.52
2017-05-13T00:50:14.140Z,48.81
2017-05-13T00:51:15.424Z,48.71
2017-05-13T00:52:16.708Z,48.90
2017-05-13T00:53:17.993Z,48.52
2017-05-13T00:54:19.274Z,48.61
2017-05-13T00:55:20.563Z,48.52
2017-05-13T00:56:21.848Z,49.29
2017-05-13T00:57:23.132Z,48.61
2017-05-13T00:58:24.415Z,48.33
2017-05-13T00:59:25.700Z,48.43
2017-05-13T01:00:26.990Z,48.52
2017-05-13T01:01:28.271Z,48.43
2017-05-13T01:02:29.558Z,48.71
2017-05-13T01:03:30.839Z,48.52
2017-05-13T01:04:32.127Z,48.43
2017-05-13T01:05:33.410Z,48.61
2017-05-13T01:06:34.691Z,48.81
2017-05-13T01:07:35.976Z,48.71
2017-05-13T01:08:37.261Z,48.61
2017-05-13T01:09:38.548Z,48.52
2017-05-13T01:10:39.828Z,48.43
2017-05-13T01:11:41.113Z,48.81
2017-05-13T01:12:42.397Z,48.81
2017-05-13T01:13:43.683Z,49.00
2017-05-13T01:14:44.966Z,48.43
2017-05-13T01:15:46.247Z,48.33
2017-05-13T01:16:47.532Z,48.71
2017-05-13T01:17:48.818Z,48.71
2017-05-13T01:18:50.103Z,48.43
2017-05-13T01:19:51.386Z,48.23
2017-05-13T01:20:52.670Z,48.61
2017-05-13T01:21:53.954Z,48.43
2017-05-13T01:22:55.239Z,48.61
2017-05-13T01:23:56.523Z,48.52
2017-05-13T01:24:57.807Z,48.23
2017-05-13T01:25:59.090Z,48.13
2017-05-13T01:27:00.405Z,48.43
2017-05-13T01:28:01.659Z,48.52
2017-05-13T01:29:02.943Z,48.43
2017-05-13T01:30:04.226Z,48.52
2017-05-13T01:31:05.510Z,48.43
2017-05-13T01:32:06.795Z,48.43
2017-05-13T01:33:08.078Z,48.40
2017-05-13T01:34:09.361Z,48.43
2017-05-13T01:35:10.646Z,48.03
2017-05-13T01:36:11.931Z,48.59
2017-05-13T01:37:13.215Z,48.43
2017-05-13T01:38:14.497Z,48.59
2017-05-13T01:39:15.781Z,48.43
2017-05-13T01:40:17.065Z,48.49
2017-05-13T01:41:18.354Z,48.43
2017-05-13T01:42:19.639Z,48.69
2017-05-13T01:43:20.924Z,48.59
2017-05-13T01:44:22.211Z,48.59
2017-05-13T01:45:23.492Z,48.69
2017-05-13T01:46:24.778Z,48.49
2017-05-13T01:47:26.063Z,48.40
2017-05-13T01:48:27.380Z,48.49
2017-05-13T01:49:28.633Z,48.79
2017-05-13T01:50:29.918Z,48.40
2017-05-13T01:51:31.202Z,48.61
2017-05-13T01:52:32.485Z,48.61
2017-05-13T01:53:33.769Z,48.49
2017-05-13T01:54:35.055Z,48.59
2017-05-13T01:55:36.338Z,48.69
2017-05-13T01:56:37.621Z,48.61
2017-05-13T01:57:38.906Z,48.40
2017-05-13T01:58:40.190Z,48.59
2017-05-13T01:59:41.473Z,48.59
2017-05-13T02:00:42.759Z,48.13
2017-05-13T02:01:44.042Z,48.40
2017-05-13T02:02:45.328Z,48.49
2017-05-13T02:03:46.614Z,48.59
2017-05-13T02:04:47.904Z,48.59
2017-05-13T02:05:49.181Z,48.49
2017-05-13T02:06:50.465Z,48.40
2017-05-13T02:07:51.750Z,48.49
2017-05-13T02:08:53.035Z,48.11
2017-05-13T02:09:54.317Z,48.21
2017-05-13T02:10:55.601Z,48.40
2017-05-13T02:11:56.884Z,48.21
2017-05-13T02:12:58.168Z,48.59
2017-05-13T02:13:59.454Z,48.11
2017-05-13T02:15:00.735Z,48.88
2017-05-13T02:16:02.020Z,48.21
2017-05-13T02:17:03.303Z,48.21
2017-05-13T02:18:04.590Z,48.11
2017-05-13T02:19:05.875Z,48.23
2017-05-13T02:20:07.158Z,48.30
2017-05-13T02:21:08.445Z,48.21
2017-05-13T02:22:09.727Z,48.11
2017-05-13T02:23:11.013Z,48.21
2017-05-13T02:24:12.294Z,48.13
2017-05-13T02:25:13.587Z,48.79
2017-05-13T02:26:14.873Z,48.02
2017-05-13T02:27:16.155Z,48.11
2017-05-13T02:28:17.440Z,48.13
2017-05-13T02:29:18.724Z,48.43
2017-05-13T02:30:20.008Z,48.21
2017-05-13T02:31:21.294Z,48.02
2017-05-13T02:32:22.574Z,48.59
2017-05-13T02:33:23.857Z,48.30
2017-05-13T02:34:25.143Z,48.11
2017-05-13T02:35:26.436Z,48.23
2017-05-13T02:36:27.717Z,48.11
2017-05-13T02:37:29.001Z,48.02
2017-05-13T02:38:30.282Z,48.11
2017-05-13T02:39:31.569Z,48.11
2017-05-13T02:40:32.853Z,48.11
2017-05-13T02:41:34.138Z,48.02
2017-05-13T02:42:35.421Z,48.11
2017-05-13T02:43:36.710Z,48.21
2017-05-13T02:44:37.995Z,48.23
2017-05-13T02:45:39.278Z,48.21
2017-05-13T02:46:40.562Z,48.13
2017-05-13T02:47:41.845Z,48.02
2017-05-13T02:48:43.129Z,48.02
2017-05-13T02:49:44.413Z,48.30
2017-05-13T02:50:45.697Z,48.21
2017-05-13T02:51:46.981Z,48.59
2017-05-13T02:52:48.268Z,48.11
2017-05-13T02:53:49.548Z,48.21
2017-05-13T02:54:50.834Z,48.69
2017-05-13T02:55:52.117Z,48.69
2017-05-13T02:56:53.403Z,48.49
2017-05-13T02:57:54.686Z,48.59
2017-05-13T02:58:55.968Z,48.30
2017-05-13T02:59:57.255Z,48.40
2017-05-13T03:00:58.538Z,48.69
2017-05-13T03:01:59.824Z,48.40
2017-05-13T03:03:01.105Z,48.49
2017-05-13T03:04:02.390Z,48.49
2017-05-13T03:05:03.677Z,48.11
2017-05-13T03:06:04.959Z,48.59
2017-05-13T03:07:06.243Z,48.21
2017-05-13T03:08:07.530Z,48.40
2017-05-13T03:09:08.813Z,48.21
2017-05-13T03:10:10.096Z,48.30
2017-05-13T03:11:11.382Z,48.40
2017-05-13T03:12:12.665Z,48.59
2017-05-13T03:13:13.951Z,48.30
2017-05-13T03:14:15.231Z,48.59
2017-05-13T03:15:16.517Z,48.30
2017-05-13T03:16:17.800Z,48.40
2017-05-13T03:17:19.085Z,48.49
2017-05-13T03:18:20.371Z,48.69
2017-05-13T03:19:21.657Z,48.40
2017-05-13T03:20:22.941Z,48.59
2017-05-13T03:21:24.225Z,48.40
2017-05-13T03:22:25.510Z,48.49
2017-05-13T03:23:26.794Z,48.11
2017-05-13T03:24:28.076Z,48.59
2017-05-13T03:25:29.361Z,48.40
2017-05-13T03:26:30.645Z,48.49
2017-05-13T03:27:31.929Z,48.30
2017-05-13T03:28:33.213Z,48.40
2017-05-13T03:29:34.497Z,48.49
2017-05-13T03:30:35.781Z,48.49
2017-05-13T03:31:37.065Z,48.40
2017-05-13T03:32:38.349Z,48.40
2017-05-13T03:33:39.632Z,48.11
2017-05-13T03:34:40.969Z,48.49
2017-05-13T03:35:42.202Z,48.40
2017-05-13T03:36:43.487Z,48.49
2017-05-13T03:37:44.772Z,48.49
2017-05-13T03:38:46.056Z,48.40
2017-05-13T03:39:47.343Z,48.49
2017-05-13T03:40:48.629Z,48.69
2017-05-13T03:41:49.914Z,48.49
2017-05-13T03:42:51.199Z,48.59
2017-05-13T03:43:52.483Z,48.59
2017-05-13T03:44:53.767Z,48.59
2017-05-13T03:45:55.052Z,48.30
2017-05-13T03:46:56.339Z,48.02
2017-05-13T03:47:57.624Z,48.02
2017-05-13T03:48:58.908Z,48.02
2017-05-13T03:50:00.233Z,48.21
2017-05-13T03:51:01.479Z,48.21
2017-05-13T03:52:02.764Z,48.11
2017-05-13T03:53:04.049Z,48.30
2017-05-13T03:54:05.333Z,48.02
2017-05-13T03:55:06.622Z,48.21
2017-05-13T03:56:07.904Z,47.92
2017-05-13T03:57:09.190Z,48.02
2017-05-13T03:58:10.474Z,48.11
2017-05-13T03:59:11.772Z,48.02
2017-05-13T04:00:13.044Z,48.30
2017-05-13T04:01:14.333Z,48.11
2017-05-13T04:02:15.616Z,48.11
2017-05-13T04:03:16.903Z,48.69
2017-05-13T04:04:18.188Z,48.30
2017-05-13T04:05:19.471Z,48.02
2017-05-13T04:06:20.755Z,48.11
2017-05-13T04:07:22.040Z,48.59
2017-05-13T04:08:23.325Z,48.49
2017-05-13T04:09:24.612Z,48.49
2017-05-13T04:10:25.898Z,48.49
2017-05-13T04:11:27.182Z,48.49
2017-05-13T04:12:28.467Z,48.49
2017-05-13T04:13:29.754Z,48.49
2017-05-13T04:14:31.040Z,48.59
2017-05-13T04:15:32.327Z,48.59
2017-05-13T04:16:33.621Z,48.49
2017-05-13T04:17:34.909Z,48.21
2017-05-13T04:18:36.196Z,48.21
2017-05-13T04:19:37.480Z,48.30
2017-05-13T04:20:38.779Z,48.40
2017-05-13T04:21:40.058Z,48.49
2017-05-13T04:22:41.345Z,48.59
2017-05-13T04:23:42.632Z,48.21
2017-05-13T04:24:43.919Z,48.59
2017-05-13T04:25:45.205Z,48.49
2017-05-13T04:26:46.493Z,48.40
2017-05-13T04:27:47.777Z,48.49
2017-05-13T04:28:49.066Z,48.49
2017-05-13T04:29:50.353Z,48.49
2017-05-13T04:30:51.642Z,48.49
2017-05-13T04:31:52.933Z,48.59
2017-05-13T04:32:54.216Z,48.59
2017-05-13T04:33:55.505Z,48.02
2017-05-13T04:34:56.792Z,48.69
2017-05-13T04:35:58.080Z,48.40
2017-05-13T04:36:59.367Z,48.11
2017-05-13T04:38:00.653Z,48.11
2017-05-13T04:39:01.941Z,48.21
2017-05-13T04:40:03.229Z,48.30
2017-05-13T04:41:04.522Z,48.21
2017-05-13T04:42:05.811Z,48.02
2017-05-13T04:43:07.099Z,48.30
2017-05-13T04:44:08.386Z,48.30
2017-05-13T04:45:09.680Z,47.82
2017-05-13T04:46:10.973Z,47.72
2017-05-13T04:47:12.259Z,48.30
2017-05-13T04:48:13.547Z,48.02
2017-05-13T04:49:14.853Z,47.92
2017-05-13T04:50:16.139Z,47.92
2017-05-13T04:51:17.429Z,47.92
2017-05-13T04:52:18.717Z,48.03
2017-05-13T04:53:20.004Z,47.82
2017-05-13T04:54:21.291Z,47.82
2017-05-13T04:55:22.579Z,47.92
2017-05-13T04:56:23.887Z,48.03
2017-05-13T04:57:25.173Z,47.82
2017-05-13T04:58:26.462Z,47.53
2017-05-13T04:59:27.751Z,48.03
2017-05-13T05:00:29.037Z,47.65
2017-05-13T05:01:30.323Z,47.53
2017-05-13T05:02:31.609Z,48.02
2017-05-13T05:03:32.896Z,47.72
2017-05-13T05:04:34.183Z,48.02
2017-05-13T05:05:35.470Z,48.02
2017-05-13T05:06:36.757Z,47.72
2017-05-13T05:07:38.047Z,47.92
2017-05-13T05:08:39.333Z,47.56
2017-05-13T05:09:40.623Z,47.92
2017-05-13T05:10:41.912Z,47.63
2017-05-13T05:11:43.235Z,47.72
2017-05-13T05:12:44.490Z,47.56
2017-05-13T05:13:45.776Z,47.63
2017-05-13T05:14:47.066Z,47.65
2017-05-13T05:15:48.362Z,47.56
2017-05-13T05:16:49.645Z,47.24
2017-05-13T05:17:50.931Z,47.46
2017-05-13T05:18:52.222Z,47.56
2017-05-13T05:19:53.508Z,47.36
2017-05-13T05:20:54.795Z,47.85
2017-05-13T05:21:56.085Z,47.17
2017-05-13T05:22:57.373Z,47.46
2017-05-13T05:23:58.661Z,47.46
2017-05-13T05:24:59.948Z,47.46
2017-05-13T05:26:01.233Z,47.56
2017-05-13T05:27:02.522Z,47.56
2017-05-13T05:28:03.813Z,47.36
2017-05-13T05:29:05.095Z,47.17
2017-05-13T05:30:06.380Z,47.27
2017-05-13T05:31:07.671Z,47.27
2017-05-13T05:32:08.955Z,47.65
2017-05-13T05:33:10.241Z,47.36
2017-05-13T05:34:11.532Z,46.98
2017-05-13T05:35:12.820Z,46.78
2017-05-13T05:36:14.110Z,47.19
2017-05-13T05:37:15.395Z,46.50
2017-05-13T05:38:16.684Z,46.78
2017-05-13T05:39:17.971Z,46.62
2017-05-13T05:40:19.261Z,46.52
2017-05-13T05:41:20.547Z,46.42
2017-05-13T05:42:21.835Z,46.23
2017-05-13T05:43:23.124Z,46.14
2017-05-13T05:44:24.411Z,46.33
2017-05-13T05:45:25.698Z,46.33
2017-05-13T05:46:26.989Z,45.84
2017-05-13T05:47:28.276Z,45.75
2017-05-13T05:48:29.565Z,45.56
2017-05-13T05:49:30.850Z,45.36
2017-05-13T05:50:32.144Z,45.07
2017-05-13T05:51:33.433Z,45.07
2017-05-13T05:52:34.720Z,45.36
2017-05-13T05:53:36.009Z,44.90
2017-05-13T05:54:37.297Z,45.20
2017-05-13T05:55:38.601Z,45.10
2017-05-13T05:56:39.890Z,44.81
2017-05-13T05:57:41.180Z,44.81
2017-05-13T05:58:42.469Z,44.62
2017-05-13T05:59:43.758Z,44.71
2017-05-13T06:00:45.047Z,44.81
2017-05-13T06:01:46.335Z,44.81
2017-05-13T06:02:47.623Z,44.81
2017-05-13T06:03:48.913Z,44.90
2017-05-13T06:04:50.202Z,44.23
2017-05-13T06:05:51.491Z,44.32
2017-05-13T06:06:52.797Z,44.13
2017-05-13T06:07:54.088Z,43.85
2017-05-13T06:08:55.375Z,44.23
2017-05-13T06:09:56.663Z,44.04
2017-05-13T06:10:57.951Z,43.94
2017-05-13T06:11:59.240Z,44.04
2017-05-13T06:13:00.525Z,43.94
2017-05-13T06:14:01.813Z,44.06
2017-05-13T06:15:03.101Z,44.06
2017-05-13T06:16:04.390Z,43.94
2017-05-13T06:17:05.677Z,44.15
2017-05-13T06:18:06.965Z,44.06
2017-05-13T06:19:08.253Z,44.15
2017-05-13T06:20:09.544Z,43.96
2017-05-13T06:21:10.832Z,43.77
2017-05-13T06:22:12.123Z,43.96
2017-05-13T06:23:13.409Z,43.87
2017-05-13T06:24:14.700Z,43.87
2017-05-13T06:25:15.990Z,43.48
2017-05-13T06:26:17.270Z,43.67
2017-05-13T06:27:18.569Z,43.58
2017-05-13T06:28:19.861Z,43.48
2017-05-13T06:29:21.153Z,43.58
2017-05-13T06:30:22.439Z,43.58
2017-05-13T06:31:23.726Z,43.77
2017-05-13T06:32:25.015Z,43.77
2017-05-13T06:33:26.303Z,43.67
2017-05-13T06:34:27.593Z,43.87
2017-05-13T06:35:28.881Z,43.60
2017-05-13T06:36:30.169Z,43.21
2017-05-13T06:37:31.458Z,43.10
2017-05-13T06:38:32.752Z,43.21
2017-05-13T06:39:34.045Z,43.19
2017-05-13T06:40:35.331Z,43.00
2017-05-13T06:41:36.618Z,43.21
2017-05-13T06:42:37.907Z,43.12
2017-05-13T06:43:39.196Z,43.12
2017-05-13T06:44:40.487Z,43.02
2017-05-13T06:45:41.773Z,42.83
2017-05-13T06:46:43.063Z,42.93
2017-05-13T06:47:44.351Z,42.73
2017-05-13T06:48:45.640Z,42.93
2017-05-13T06:49:46.931Z,43.02
2017-05-13T06:50:48.224Z,43.02
2017-05-13T06:51:49.512Z,43.02
2017-05-13T06:52:50.799Z,42.93
2017-05-13T06:53:52.088Z,42.93
2017-05-13T06:54:53.376Z,42.63
2017-05-13T06:55:54.665Z,42.93
2017-05-13T06:56:56.240Z,42.93
2017-05-13T06:57:57.530Z,42.73
2017-05-13T06:58:58.881Z,42.63
2017-05-13T07:00:00.182Z,42.54
2017-05-13T07:01:01.477Z,43.02
2017-05-13T07:02:02.792Z,42.73
2017-05-13T07:03:04.078Z,42.63
2017-05-13T07:04:05.367Z,42.63
2017-05-13T07:05:06.677Z,42.63
2017-05-13T07:06:08.164Z,42.73
2017-05-13T07:07:09.458Z,42.63
2017-05-13T07:08:10.750Z,42.63
2017-05-13T07:09:12.167Z,42.63
2017-05-13T07:10:13.466Z,42.54
2017-05-13T07:11:14.750Z,43.02
2017-05-13T07:12:16.050Z,43.12
2017-05-13T07:13:17.362Z,46.01
2017-05-13T07:14:18.641Z,44.83
2017-05-13T07:15:19.930Z,46.47
2017-05-13T07:16:21.218Z,47.53
2017-05-13T07:17:23.094Z,47.53
2017-05-13T07:18:24.382Z,47.72
2017-05-13T07:19:25.682Z,48.11
2017-05-13T07:20:27.244Z,47.44
2017-05-13T07:21:28.531Z,48.33
2017-05-13T07:22:29.823Z,47.82
2017-05-13T07:23:34.941Z,47.53
2017-05-13T07:24:36.262Z,49.37
2017-05-13T07:25:40.084Z,49.46
2017-05-13T07:26:43.335Z,49.75
2017-05-13T07:27:45.539Z,49.82
2017-05-13T07:28:46.857Z,49.73
2017-05-13T07:29:48.146Z,50.98
2017-05-13T07:30:52.623Z,51.26
2017-05-13T07:31:53.906Z,50.98
2017-05-13T07:32:55.195Z,51.07
2017-05-13T07:33:56.484Z,51.07
2017-05-13T07:34:57.774Z,50.81
2017-05-13T07:35:59.093Z,50.71
2017-05-13T07:37:00.702Z,51.10
2017-05-13T07:38:01.998Z,51.77
2017-05-13T07:39:03.292Z,53.67
2017-05-13T07:40:04.580Z,53.09
2017-05-13T07:41:05.869Z,53.00
2017-05-13T07:42:07.158Z,53.67
2017-05-13T07:43:08.448Z,53.58
2017-05-13T07:44:09.738Z,54.06
2017-05-13T07:45:11.030Z,53.77
2017-05-13T07:46:12.337Z,53.96
2017-05-13T07:47:13.629Z,53.77
2017-05-13T07:48:14.916Z,53.09
2017-05-13T07:49:16.206Z,52.16
2017-05-13T07:50:17.501Z,51.58
2017-05-13T07:51:18.791Z,51.77
2017-05-13T07:52:20.082Z,50.32
2017-05-13T07:53:21.371Z,50.13
2017-05-13T07:54:22.659Z,50.32
2017-05-13T07:55:23.948Z,50.62
2017-05-13T07:56:25.306Z,50.13
2017-05-13T07:57:26.599Z,49.94
2017-05-13T07:58:27.887Z,50.32
2017-05-13T07:59:29.177Z,50.49
2017-05-13T08:00:30.466Z,50.78
2017-05-13T08:01:31.760Z,51.65
2017-05-13T08:02:33.048Z,50.69
2017-05-13T08:03:34.339Z,50.59
2017-05-13T08:04:35.661Z,50.78
2017-05-13T08:05:36.947Z,51.14
2017-05-13T08:06:38.235Z,52.11
2017-05-13T08:07:39.521Z,51.82
2017-05-13T08:08:40.809Z,51.92
2017-05-13T08:09:42.099Z,51.82
2017-05-13T08:10:43.394Z,51.46
2017-05-13T08:11:44.681Z,50.49
2017-05-13T08:12:45.981Z,49.94
2017-05-13T08:13:47.272Z,50.42
2017-05-13T08:14:48.561Z,50.06
2017-05-13T08:15:49.854Z,50.26
2017-05-13T08:16:53.238Z,49.96
2017-05-13T08:17:54.545Z,50.64
2017-05-13T08:18:55.876Z,50.06
2017-05-13T08:19:57.123Z,49.77
2017-05-13T08:20:59.073Z,50.16
2017-05-13T08:22:00.377Z,50.26
2017-05-13T08:23:01.667Z,50.64
2017-05-13T08:24:02.958Z,50.06
2017-05-13T08:25:04.246Z,50.35
2017-05-13T08:26:05.537Z,50.35
2017-05-13T08:27:06.824Z,49.41
2017-05-13T08:28:08.116Z,49.41
2017-05-13T08:29:09.408Z,49.41
2017-05-13T08:30:10.948Z,49.32
2017-05-13T08:31:12.190Z,49.41
2017-05-13T08:32:13.479Z,49.41
2017-05-13T08:33:14.770Z,49.22
2017-05-13T08:34:16.062Z,48.35
2017-05-13T08:35:17.350Z,48.64
2017-05-13T08:36:18.644Z,48.16
2017-05-13T08:37:19.934Z,48.54
2017-05-13T08:38:21.224Z,48.74
2017-05-13T08:39:22.513Z,48.64
2017-05-13T08:40:23.803Z,48.74
2017-05-13T08:41:25.092Z,48.06
2017-05-13T08:42:26.382Z,48.25
2017-05-13T08:43:27.673Z,47.87
2017-05-13T08:44:28.963Z,48.06
2017-05-13T08:45:30.252Z,48.44
2017-05-13T08:46:31.540Z,48.16
2017-05-13T08:47:32.830Z,48.64
2017-05-13T08:48:34.119Z,48.25
2017-05-13T08:49:35.410Z,48.64
2017-05-13T08:50:36.712Z,48.93
2017-05-13T08:51:38.003Z,47.58
2017-05-13T08:52:39.311Z,48.25
2017-05-13T08:53:40.602Z,48.44
2017-05-13T08:54:41.891Z,47.96
2017-05-13T08:55:43.183Z,48.18
2017-05-13T08:56:44.474Z,47.89
2017-05-13T08:57:45.763Z,47.31
2017-05-13T08:58:47.062Z,47.80
2017-05-13T08:59:48.353Z,47.70
2017-05-13T09:00:49.645Z,47.70
2017-05-13T09:01:50.933Z,47.12
2017-05-13T09:02:52.225Z,46.54
2017-05-13T09:03:53.514Z,46.92
2017-05-13T09:04:54.809Z,47.31
2017-05-13T09:05:56.098Z,47.22
2017-05-13T09:06:57.388Z,45.96
2017-05-13T09:07:58.680Z,46.25
2017-05-13T09:08:59.967Z,46.83
2017-05-13T09:10:01.257Z,47.31
2017-05-13T09:11:02.546Z,47.41
2017-05-13T09:12:03.835Z,47.02
2017-05-13T09:13:05.125Z,47.02
2017-05-13T09:14:06.412Z,45.57
2017-05-13T09:15:07.702Z,46.61
2017-05-13T09:16:08.993Z,47.19
2017-05-13T09:17:10.325Z,46.61
2017-05-13T09:18:11.608Z,47.02
2017-05-13T09:19:12.902Z,46.81
2017-05-13T09:20:14.193Z,47.48
2017-05-13T09:21:15.485Z,47.58
2017-05-13T09:22:16.776Z,47.31
2017-05-13T09:23:18.062Z,46.51
2017-05-13T09:24:19.353Z,46.64
2017-05-13T09:25:20.644Z,47.50
2017-05-13T09:26:21.931Z,47.41
2017-05-13T09:27:23.218Z,47.41
2017-05-13T09:28:24.511Z,47.89
2017-05-13T09:29:25.802Z,47.48
2017-05-13T09:30:27.094Z,47.80
2017-05-13T09:31:28.377Z,47.70
2017-05-13T09:32:29.669Z,47.31
2017-05-13T09:33:30.958Z,46.92
2017-05-13T09:34:32.246Z,46.06
2017-05-13T09:35:33.535Z,46.64
2017-05-13T09:36:34.826Z,46.64
2017-05-13T09:37:36.116Z,46.64
2017-05-13T09:38:37.403Z,46.15
2017-05-13T09:39:38.693Z,45.86
2017-05-13T09:40:39.982Z,45.57
2017-05-13T09:41:41.272Z,45.09
2017-05-13T09:42:42.561Z,44.80
2017-05-13T09:43:43.851Z,44.80
2017-05-13T09:44:45.143Z,45.09
2017-05-13T09:45:46.430Z,45.00
2017-05-13T09:46:47.719Z,45.00
2017-05-13T09:47:49.011Z,45.09
2017-05-13T09:48:50.321Z,44.32
2017-05-13T09:49:51.611Z,44.60
2017-05-13T09:50:52.898Z,44.32
2017-05-13T09:51:54.194Z,44.70
2017-05-13T09:52:55.514Z,44.90
2017-05-13T09:53:56.801Z,44.70
2017-05-13T09:54:58.095Z,44.90
2017-05-13T09:55:59.385Z,44.22
2017-05-13T09:57:00.676Z,44.12
2017-05-13T09:58:01.968Z,44.03
2017-05-13T09:59:03.259Z,44.22
2017-05-13T10:00:04.549Z,43.93
2017-05-13T10:01:05.836Z,44.12
2017-05-13T10:02:07.133Z,43.93
2017-05-13T10:03:08.420Z,44.12
2017-05-13T10:04:09.711Z,44.03
2017-05-13T10:05:11.640Z,44.05
2017-05-13T10:06:12.922Z,43.85
2017-05-13T10:07:14.214Z,43.66
2017-05-13T10:08:15.523Z,43.76
2017-05-13T10:09:16.963Z,43.47
2017-05-13T10:10:18.257Z,43.18
2017-05-13T10:11:19.543Z,44.05
2017-05-13T10:12:20.834Z,43.76
2017-05-13T10:13:22.123Z,43.85
2017-05-13T10:14:23.413Z,44.24
2017-05-13T10:15:24.701Z,43.76
2017-05-13T10:16:26.017Z,43.76
2017-05-13T10:17:27.308Z,43.66
2017-05-13T10:18:28.599Z,43.66
2017-05-13T10:19:29.889Z,43.57
2017-05-13T10:20:31.181Z,43.76
2017-05-13T10:21:32.471Z,43.28
2017-05-13T10:22:33.762Z,43.76
2017-05-13T10:23:35.054Z,43.47
2017-05-13T10:24:36.342Z,43.37
2017-05-13T10:25:37.633Z,43.76
2017-05-13T10:26:38.924Z,43.18
2017-05-13T10:27:40.213Z,43.85
2017-05-13T10:28:41.506Z,43.76
2017-05-13T10:29:42.797Z,43.85
2017-05-13T10:30:44.090Z,43.57
2017-05-13T10:31:45.375Z,44.05
2017-05-13T10:32:46.668Z,43.76
2017-05-13T10:33:47.957Z,43.47
2017-05-13T10:34:49.262Z,44.15
2017-05-13T10:35:50.553Z,44.73
2017-05-13T10:36:51.844Z,44.73
2017-05-13T10:37:53.134Z,44.92
2017-05-13T10:38:54.425Z,45.01
2017-05-13T10:39:55.715Z,43.95
2017-05-13T10:40:57.008Z,44.05
2017-05-13T10:41:58.295Z,44.05
2017-05-13T10:42:59.586Z,43.66
2017-05-13T10:44:00.876Z,44.05
2017-05-13T10:45:02.166Z,44.43
2017-05-13T10:46:03.452Z,44.92
2017-05-13T10:47:04.746Z,44.80
2017-05-13T10:48:06.032Z,44.82
2017-05-13T10:49:07.323Z,45.01
2017-05-13T10:50:08.619Z,45.01
2017-05-13T10:51:09.905Z,45.01
2017-05-13T10:52:11.196Z,44.92
2017-05-13T10:53:12.484Z,45.01
2017-05-13T10:54:13.775Z,44.24
2017-05-13T10:55:15.074Z,43.47
2017-05-13T10:56:16.363Z,43.28
2017-05-13T10:57:17.657Z,43.47
2017-05-13T10:58:18.951Z,43.66
2017-05-13T10:59:20.240Z,42.99
2017-05-13T11:00:21.530Z,43.18
2017-05-13T11:01:22.821Z,43.66
2017-05-13T11:02:24.109Z,43.76
2017-05-13T11:03:25.401Z,43.66
2017-05-13T11:04:26.733Z,43.57
2017-05-13T11:05:28.020Z,43.57
2017-05-13T11:06:29.315Z,43.76
2017-05-13T11:07:30.604Z,43.76
2017-05-13T11:08:31.894Z,43.85
2017-05-13T11:09:33.183Z,43.47
2017-05-13T11:10:34.474Z,43.66
2017-05-13T11:11:35.763Z,43.76
2017-05-13T11:12:37.058Z,43.66
2017-05-13T11:13:38.341Z,43.76
2017-05-13T11:14:39.633Z,43.66
2017-05-13T11:15:40.921Z,43.76
2017-05-13T11:16:42.209Z,43.85
2017-05-13T11:17:43.497Z,43.57
2017-05-13T11:18:44.788Z,44.15
2017-05-13T11:19:46.077Z,43.66
2017-05-13T11:20:47.368Z,44.05
2017-05-13T11:21:48.657Z,44.05
2017-05-13T11:22:49.948Z,43.57
2017-05-13T11:23:51.237Z,43.76
2017-05-13T11:24:52.528Z,43.57
2017-05-13T11:25:53.817Z,43.85
2017-05-13T11:26:55.107Z,43.76
2017-05-13T11:27:56.401Z,43.76
2017-05-13T11:28:57.694Z,44.15
2017-05-13T11:29:58.982Z,43.66
2017-05-13T11:31:00.273Z,43.76
2017-05-13T11:32:01.565Z,43.66
2017-05-13T11:33:02.859Z,43.66
2017-05-13T11:34:04.150Z,43.95
2017-05-13T11:35:05.442Z,43.66
2017-05-13T11:36:06.755Z,43.76
2017-05-13T11:37:08.041Z,43.85
2017-05-13T11:38:09.334Z,43.28
2017-05-13T11:39:10.625Z,42.79
2017-05-13T11:40:11.921Z,43.18
2017-05-13T11:41:13.219Z,42.89
2017-05-13T11:42:14.506Z,42.70
2017-05-13T11:43:15.801Z,42.99
2017-05-13T11:44:17.088Z,42.70
2017-05-13T11:45:18.380Z,42.99
2017-05-13T11:46:19.671Z,42.79
2017-05-13T11:47:20.958Z,42.70
2017-05-13T11:48:22.252Z,42.41
2017-05-13T11:49:23.540Z,42.79
2017-05-13T11:50:24.830Z,42.79
2017-05-13T11:51:26.119Z,42.70
2017-05-13T11:52:27.432Z,42.79
2017-05-13T11:53:28.727Z,42.79
2017-05-13T11:54:30.016Z,42.50
2017-05-13T11:55:31.306Z,42.70
2017-05-13T11:56:32.598Z,42.79
2017-05-13T11:57:33.892Z,42.97
2017-05-13T11:58:35.179Z,43.18
2017-05-13T11:59:36.469Z,42.79
2017-05-13T12:00:37.759Z,42.99
2017-05-13T12:01:39.069Z,42.70
2017-05-13T12:02:40.360Z,42.70
2017-05-13T12:03:41.652Z,42.70
2017-05-13T12:04:42.941Z,42.79
2017-05-13T12:05:44.233Z,42.60
2017-05-13T12:06:45.525Z,42.89
2017-05-13T12:07:46.815Z,42.62
2017-05-13T12:08:48.104Z,43.10
2017-05-13T12:09:49.393Z,42.91
2017-05-13T12:10:50.686Z,43.10
2017-05-13T12:11:51.976Z,42.82
2017-05-13T12:12:53.268Z,42.50
2017-05-13T12:13:54.550Z,43.57
2017-05-13T12:14:55.854Z,43.85
2017-05-13T12:15:57.139Z,43.95
2017-05-13T12:16:58.427Z,43.76
2017-05-13T12:17:59.720Z,43.66
2017-05-13T12:19:01.010Z,43.85
2017-05-13T12:20:02.300Z,43.66
2017-05-13T12:21:03.590Z,43.47
2017-05-13T12:22:04.877Z,42.89
2017-05-13T12:23:06.166Z,43.08
2017-05-13T12:24:07.460Z,43.37
2017-05-13T12:25:08.748Z,42.89
2017-05-13T12:26:10.036Z,42.60
2017-05-13T12:27:11.327Z,43.28
2017-05-13T12:28:12.617Z,42.99
2017-05-13T12:29:13.906Z,42.60
2017-05-13T12:30:15.195Z,43.08
2017-05-13T12:31:16.484Z,43.28
2017-05-13T12:32:17.775Z,43.08
2017-05-13T12:33:19.064Z,43.08
2017-05-13T12:34:20.352Z,43.28
2017-05-13T12:35:21.678Z,43.85
2017-05-13T12:36:22.968Z,44.73
2017-05-13T12:37:24.305Z,44.34
2017-05-13T12:38:25.606Z,45.21
2017-05-13T12:39:26.896Z,49.37
2017-05-13T12:40:29.121Z,47.63
2017-05-13T12:41:30.334Z,49.37
2017-05-13T12:42:31.655Z,47.43
2017-05-13T12:43:33.003Z,47.81
2017-05-13T12:44:34.313Z,48.69
2017-05-13T12:45:35.880Z,47.72
2017-05-13T12:46:37.169Z,48.49
2017-05-13T12:47:38.752Z,47.24
2017-05-13T12:48:40.052Z,46.85
2017-05-13T12:49:41.344Z,47.53
2017-05-13T12:50:42.634Z,46.75
2017-05-13T12:51:44.235Z,45.40
2017-05-13T12:52:45.520Z,44.92
2017-05-13T12:53:46.811Z,44.82
2017-05-13T12:54:51.801Z,44.82
2017-05-13T12:55:53.051Z,44.73
2017-05-13T12:56:54.341Z,45.01
2017-05-13T12:57:55.653Z,46.56
2017-05-13T12:58:56.950Z,45.40
2017-05-13T12:59:58.237Z,45.79
2017-05-13T13:00:59.528Z,45.69
2017-05-13T13:02:00.821Z,44.92
2017-05-13T13:03:02.110Z,45.40
2017-05-13T13:04:03.401Z,45.18
2017-05-13T13:05:04.694Z,46.75
2017-05-13T13:06:05.984Z,46.08
2017-05-13T13:07:07.305Z,46.17
2017-05-13T13:08:08.594Z,45.89
2017-05-13T13:09:09.898Z,44.92